sensor_id;sensor_type;location;lat;lon;timestamp;P1;durP1;ratioP1;P2;durP2;ratioP2
1679;SDS011;838;51.794;12.258;2024-01-07T00:02:14;22.13;;;10.97;;
1679;SDS011;838;51.794;12.258;2024-01-07T00:04:40;20.43;;;9.90;;
1679;SDS011;838;51.794;12.258;2024-01-07T00:07:06;14.97;;;10.23;;
1679;SDS011;838;51.794;12.258;2024-01-07T00:09:31;16.70;;;10.17;;
1679;SDS011;838;51.794;12.258;2024-01-07T00:11:57;20.07;;;9.70;;
1679;SDS011;838;51.794;12.258;2024-01-07T00:14:23;16.77;;;10.40;;
1679;SDS011;838;51.794;12.258;2024-01-07T00:16:48;19.37;;;10.13;;
1679;SDS011;838;51.794;12.258;2024-01-07T00:19:14;15.27;;;9.73;;
1679;SDS011;838;51.794;12.258;2024-01-07T00:21:40;12.43;;;8.93;;
1679;SDS011;838;51.794;12.258;2024-01-07T00:24:05;19.63;;;9.80;;
1679;SDS011;838;51.794;12.258;2024-01-07T00:26:31;15.63;;;8.17;;
1679;SDS011;838;51.794;12.258;2024-01-07T00:28:57;15.20;;;9.20;;
1679;SDS011;838;51.794;12.258;2024-01-07T00:31:23;15.17;;;9.23;;
1679;SDS011;838;51.794;12.258;2024-01-07T00:33:48;13.20;;;8.87;;
1679;SDS011;838;51.794;12.258;2024-01-07T00:36:14;17.47;;;10.00;;
1679;SDS011;838;51.794;12.258;2024-01-07T00:38:40;16.37;;;9.07;;
1679;SDS011;838;51.794;12.258;2024-01-07T00:41:05;18.90;;;10.17;;
1679;SDS011;838;51.794;12.258;2024-01-07T00:43:31;17.73;;;8.20;;
1679;SDS011;838;51.794;12.258;2024-01-07T00:45:57;21.67;;;9.10;;
1679;SDS011;838;51.794;12.258;2024-01-07T00:48:22;12.97;;;7.23;;
1679;SDS011;838;51.794;12.258;2024-01-07T00:50:48;13.50;;;8.33;;
1679;SDS011;838;51.794;12.258;2024-01-07T00:53:14;14.67;;;7.70;;
1679;SDS011;838;51.794;12.258;2024-01-07T00:55:39;12.10;;;7.57;;
1679;SDS011;838;51.794;12.258;2024-01-07T00:58:05;13.70;;;7.60;;
1679;SDS011;838;51.794;12.258;2024-01-07T01:00:30;14.47;;;8.40;;
1679;SDS011;838;51.794;12.258;2024-01-07T01:02:56;16.60;;;8.53;;
1679;SDS011;838;51.794;12.258;2024-01-07T01:05:23;12.20;;;7.27;;
1679;SDS011;838;51.794;12.258;2024-01-07T01:07:49;15.07;;;7.13;;
1679;SDS011;838;51.794;12.258;2024-01-07T01:10:17;12.00;;;7.20;;
1679;SDS011;838;51.794;12.258;2024-01-07T01:12:43;13.00;;;7.73;;
1679;SDS011;838;51.794;12.258;2024-01-07T01:15:09;9.93;;;6.77;;
1679;SDS011;838;51.794;12.258;2024-01-07T01:17:35;14.00;;;6.60;;
1679;SDS011;838;51.794;12.258;2024-01-07T01:20:00;13.67;;;7.00;;
1679;SDS011;838;51.794;12.258;2024-01-07T01:22:26;12.13;;;7.03;;
1679;SDS011;838;51.794;12.258;2024-01-07T01:24:52;9.20;;;5.60;;
1679;SDS011;838;51.794;12.258;2024-01-07T01:27:18;10.80;;;6.57;;
1679;SDS011;838;51.794;12.258;2024-01-07T01:29:44;12.20;;;7.07;;
1679;SDS011;838;51.794;12.258;2024-01-07T01:32:10;10.40;;;6.80;;
1679;SDS011;838;51.794;12.258;2024-01-07T01:34:36;10.57;;;6.63;;
1679;SDS011;838;51.794;12.258;2024-01-07T01:37:02;12.87;;;6.10;;
1679;SDS011;838;51.794;12.258;2024-01-07T01:39:28;10.27;;;5.90;;
1679;SDS011;838;51.794;12.258;2024-01-07T01:41:54;10.87;;;5.53;;
1679;SDS011;838;51.794;12.258;2024-01-07T01:44:20;9.90;;;6.30;;
1679;SDS011;838;51.794;12.258;2024-01-07T01:46:46;7.90;;;5.03;;
1679;SDS011;838;51.794;12.258;2024-01-07T01:49:13;10.70;;;5.03;;
1679;SDS011;838;51.794;12.258;2024-01-07T01:51:39;7.60;;;5.17;;
1679;SDS011;838;51.794;12.258;2024-01-07T01:54:05;6.87;;;4.93;;
1679;SDS011;838;51.794;12.258;2024-01-07T01:56:31;7.37;;;5.20;;
1679;SDS011;838;51.794;12.258;2024-01-07T01:58:57;9.93;;;6.10;;
1679;SDS011;838;51.794;12.258;2024-01-07T02:01:24;8.30;;;4.63;;
1679;SDS011;838;51.794;12.258;2024-01-07T02:03:50;12.20;;;5.10;;
1679;SDS011;838;51.794;12.258;2024-01-07T02:06:17;7.40;;;4.60;;
1679;SDS011;838;51.794;12.258;2024-01-07T02:08:44;7.80;;;4.30;;
1679;SDS011;838;51.794;12.258;2024-01-07T02:11:20;9.80;;;5.73;;
1679;SDS011;838;51.794;12.258;2024-01-07T02:13:46;6.73;;;4.00;;
1679;SDS011;838;51.794;12.258;2024-01-07T02:16:13;8.57;;;4.50;;
1679;SDS011;838;51.794;12.258;2024-01-07T02:18:42;10.13;;;4.27;;
1679;SDS011;838;51.794;12.258;2024-01-07T02:21:10;7.30;;;4.50;;
1679;SDS011;838;51.794;12.258;2024-01-07T02:23:36;8.30;;;5.23;;
1679;SDS011;838;51.794;12.258;2024-01-07T02:26:02;6.50;;;4.60;;
1679;SDS011;838;51.794;12.258;2024-01-07T02:28:28;7.57;;;4.20;;
1679;SDS011;838;51.794;12.258;2024-01-07T02:30:55;7.07;;;4.70;;
1679;SDS011;838;51.794;12.258;2024-01-07T02:33:20;6.90;;;4.10;;
1679;SDS011;838;51.794;12.258;2024-01-07T02:35:46;8.03;;;5.33;;
1679;SDS011;838;51.794;12.258;2024-01-07T02:38:12;8.00;;;4.40;;
1679;SDS011;838;51.794;12.258;2024-01-07T02:40:38;8.50;;;4.90;;
1679;SDS011;838;51.794;12.258;2024-01-07T02:43:03;9.90;;;5.27;;
1679;SDS011;838;51.794;12.258;2024-01-07T02:45:29;7.50;;;4.30;;
1679;SDS011;838;51.794;12.258;2024-01-07T02:47:55;8.13;;;4.37;;
1679;SDS011;838;51.794;12.258;2024-01-07T02:50:20;6.27;;;3.73;;
1679;SDS011;838;51.794;12.258;2024-01-07T02:52:47;5.40;;;4.50;;
1679;SDS011;838;51.794;12.258;2024-01-07T02:55:13;6.20;;;3.87;;
1679;SDS011;838;51.794;12.258;2024-01-07T02:57:39;6.40;;;3.50;;
1679;SDS011;838;51.794;12.258;2024-01-07T03:00:05;7.87;;;4.33;;
1679;SDS011;838;51.794;12.258;2024-01-07T03:02:31;9.70;;;3.70;;
1679;SDS011;838;51.794;12.258;2024-01-07T03:04:57;4.90;;;3.17;;
1679;SDS011;838;51.794;12.258;2024-01-07T03:07:23;7.47;;;4.03;;
1679;SDS011;838;51.794;12.258;2024-01-07T03:09:48;6.73;;;3.70;;
1679;SDS011;838;51.794;12.258;2024-01-07T03:12:17;6.40;;;3.23;;
1679;SDS011;838;51.794;12.258;2024-01-07T03:14:43;6.30;;;3.60;;
1679;SDS011;838;51.794;12.258;2024-01-07T03:17:09;6.20;;;3.37;;
1679;SDS011;838;51.794;12.258;2024-01-07T03:19:37;7.20;;;3.10;;
1679;SDS011;838;51.794;12.258;2024-01-07T03:22:03;4.60;;;3.33;;
1679;SDS011;838;51.794;12.258;2024-01-07T03:24:30;4.40;;;3.03;;
1679;SDS011;838;51.794;12.258;2024-01-07T03:26:56;4.57;;;3.10;;
1679;SDS011;838;51.794;12.258;2024-01-07T03:29:22;5.73;;;3.60;;
1679;SDS011;838;51.794;12.258;2024-01-07T03:31:47;6.70;;;3.00;;
1679;SDS011;838;51.794;12.258;2024-01-07T03:34:13;5.53;;;3.30;;
1679;SDS011;838;51.794;12.258;2024-01-07T03:36:39;5.37;;;3.10;;
1679;SDS011;838;51.794;12.258;2024-01-07T03:39:04;6.90;;;3.03;;
1679;SDS011;838;51.794;12.258;2024-01-07T03:41:30;5.23;;;3.33;;
1679;SDS011;838;51.794;12.258;2024-01-07T03:43:56;4.40;;;3.33;;
1679;SDS011;838;51.794;12.258;2024-01-07T03:46:21;7.50;;;3.40;;
1679;SDS011;838;51.794;12.258;2024-01-07T03:48:47;5.20;;;3.20;;
1679;SDS011;838;51.794;12.258;2024-01-07T03:51:13;5.47;;;3.10;;
1679;SDS011;838;51.794;12.258;2024-01-07T03:53:39;6.57;;;3.33;;
1679;SDS011;838;51.794;12.258;2024-01-07T03:56:04;8.03;;;3.90;;
1679;SDS011;838;51.794;12.258;2024-01-07T03:58:30;4.70;;;2.60;;
1679;SDS011;838;51.794;12.258;2024-01-07T04:00:58;4.87;;;2.60;;
1679;SDS011;838;51.794;12.258;2024-01-07T04:03:23;6.17;;;3.83;;
1679;SDS011;838;51.794;12.258;2024-01-07T04:05:49;5.60;;;3.03;;
1679;SDS011;838;51.794;12.258;2024-01-07T04:08:15;4.67;;;3.33;;
1679;SDS011;838;51.794;12.258;2024-01-07T04:10:40;5.10;;;3.50;;
1679;SDS011;838;51.794;12.258;2024-01-07T04:13:07;5.73;;;3.10;;
1679;SDS011;838;51.794;12.258;2024-01-07T04:15:33;4.90;;;2.53;;
1679;SDS011;838;51.794;12.258;2024-01-07T04:18:02;5.27;;;3.10;;
1679;SDS011;838;51.794;12.258;2024-01-07T04:20:28;4.10;;;2.67;;
1679;SDS011;838;51.794;12.258;2024-01-07T04:22:54;6.97;;;3.37;;
1679;SDS011;838;51.794;12.258;2024-01-07T04:25:20;4.83;;;2.63;;
1679;SDS011;838;51.794;12.258;2024-01-07T04:27:46;4.40;;;3.30;;
1679;SDS011;838;51.794;12.258;2024-01-07T04:30:12;5.57;;;3.00;;
1679;SDS011;838;51.794;12.258;2024-01-07T04:32:38;4.53;;;3.00;;
1679;SDS011;838;51.794;12.258;2024-01-07T04:35:04;5.23;;;3.23;;
1679;SDS011;838;51.794;12.258;2024-01-07T04:37:31;4.77;;;2.90;;
1679;SDS011;838;51.794;12.258;2024-01-07T04:39:57;7.07;;;3.87;;
1679;SDS011;838;51.794;12.258;2024-01-07T04:42:23;5.00;;;2.60;;
1679;SDS011;838;51.794;12.258;2024-01-07T04:44:48;5.70;;;3.00;;
1679;SDS011;838;51.794;12.258;2024-01-07T04:47:27;4.10;;;2.40;;
1679;SDS011;838;51.794;12.258;2024-01-07T04:49:54;4.00;;;2.40;;
1679;SDS011;838;51.794;12.258;2024-01-07T04:52:24;4.07;;;2.43;;
1679;SDS011;838;51.794;12.258;2024-01-07T04:54:50;5.37;;;2.47;;
1679;SDS011;838;51.794;12.258;2024-01-07T04:57:17;4.53;;;2.43;;
1679;SDS011;838;51.794;12.258;2024-01-07T04:59:43;4.37;;;2.60;;
1679;SDS011;838;51.794;12.258;2024-01-07T05:02:08;3.50;;;2.30;;
1679;SDS011;838;51.794;12.258;2024-01-07T05:04:35;3.70;;;2.20;;
1679;SDS011;838;51.794;12.258;2024-01-07T05:07:01;5.43;;;2.40;;
1679;SDS011;838;51.794;12.258;2024-01-07T05:09:27;4.50;;;2.90;;
1679;SDS011;838;51.794;12.258;2024-01-07T05:11:52;5.10;;;2.47;;
1679;SDS011;838;51.794;12.258;2024-01-07T05:14:18;5.27;;;2.47;;
1679;SDS011;838;51.794;12.258;2024-01-07T05:16:44;3.67;;;2.20;;
1679;SDS011;838;51.794;12.258;2024-01-07T05:19:09;3.63;;;2.50;;
1679;SDS011;838;51.794;12.258;2024-01-07T05:21:35;4.33;;;2.70;;
1679;SDS011;838;51.794;12.258;2024-01-07T05:24:01;5.20;;;2.83;;
1679;SDS011;838;51.794;12.258;2024-01-07T05:26:26;4.47;;;2.70;;
1679;SDS011;838;51.794;12.258;2024-01-07T05:28:52;3.57;;;2.37;;
1679;SDS011;838;51.794;12.258;2024-01-07T05:31:18;6.80;;;2.90;;
1679;SDS011;838;51.794;12.258;2024-01-07T05:33:47;3.90;;;2.67;;
1679;SDS011;838;51.794;12.258;2024-01-07T05:36:12;4.10;;;2.23;;
1679;SDS011;838;51.794;12.258;2024-01-07T05:38:39;4.00;;;2.23;;
1679;SDS011;838;51.794;12.258;2024-01-07T05:41:06;3.40;;;2.23;;
1679;SDS011;838;51.794;12.258;2024-01-07T05:43:32;5.73;;;2.70;;
1679;SDS011;838;51.794;12.258;2024-01-07T05:45:58;5.23;;;2.23;;
1679;SDS011;838;51.794;12.258;2024-01-07T05:48:24;4.83;;;2.30;;
1679;SDS011;838;51.794;12.258;2024-01-07T05:50:49;4.20;;;2.67;;
1679;SDS011;838;51.794;12.258;2024-01-07T05:53:16;4.20;;;2.80;;
1679;SDS011;838;51.794;12.258;2024-01-07T05:55:42;4.97;;;3.07;;
1679;SDS011;838;51.794;12.258;2024-01-07T05:58:08;5.40;;;2.63;;
1679;SDS011;838;51.794;12.258;2024-01-07T06:00:34;5.50;;;3.10;;
1679;SDS011;838;51.794;12.258;2024-01-07T06:02:59;3.90;;;2.77;;
1679;SDS011;838;51.794;12.258;2024-01-07T06:05:25;5.47;;;3.00;;
1679;SDS011;838;51.794;12.258;2024-01-07T06:07:51;4.27;;;2.90;;
1679;SDS011;838;51.794;12.258;2024-01-07T06:10:17;3.87;;;2.53;;
1679;SDS011;838;51.794;12.258;2024-01-07T06:12:43;5.70;;;3.20;;
1679;SDS011;838;51.794;12.258;2024-01-07T06:15:08;5.17;;;3.03;;
1679;SDS011;838;51.794;12.258;2024-01-07T06:17:34;4.50;;;2.80;;
1679;SDS011;838;51.794;12.258;2024-01-07T06:20:00;5.50;;;2.90;;
1679;SDS011;838;51.794;12.258;2024-01-07T06:22:26;4.90;;;3.30;;
1679;SDS011;838;51.794;12.258;2024-01-07T06:24:51;5.10;;;3.10;;
1679;SDS011;838;51.794;12.258;2024-01-07T06:27:17;5.93;;;3.20;;
1679;SDS011;838;51.794;12.258;2024-01-07T06:29:43;6.40;;;4.07;;
1679;SDS011;838;51.794;12.258;2024-01-07T06:32:09;4.53;;;2.83;;
1679;SDS011;838;51.794;12.258;2024-01-07T06:34:38;5.33;;;3.50;;
1679;SDS011;838;51.794;12.258;2024-01-07T06:37:04;7.53;;;3.50;;
1679;SDS011;838;51.794;12.258;2024-01-07T06:39:30;7.33;;;3.40;;
1679;SDS011;838;51.794;12.258;2024-01-07T06:41:57;5.70;;;3.13;;
1679;SDS011;838;51.794;12.258;2024-01-07T06:44:22;4.90;;;3.23;;
1679;SDS011;838;51.794;12.258;2024-01-07T06:46:48;3.63;;;2.60;;
1679;SDS011;838;51.794;12.258;2024-01-07T06:49:14;3.90;;;2.60;;
1679;SDS011;838;51.794;12.258;2024-01-07T06:51:39;6.03;;;3.40;;
1679;SDS011;838;51.794;12.258;2024-01-07T06:54:05;4.30;;;2.40;;
1679;SDS011;838;51.794;12.258;2024-01-07T06:56:31;5.00;;;2.97;;
1679;SDS011;838;51.794;12.258;2024-01-07T06:58:56;5.40;;;2.70;;
1679;SDS011;838;51.794;12.258;2024-01-07T07:01:22;4.10;;;2.77;;
1679;SDS011;838;51.794;12.258;2024-01-07T07:03:48;6.37;;;2.90;;
1679;SDS011;838;51.794;12.258;2024-01-07T07:06:15;5.90;;;2.90;;
1679;SDS011;838;51.794;12.258;2024-01-07T07:08:41;5.07;;;2.60;;
1679;SDS011;838;51.794;12.258;2024-01-07T07:11:07;3.60;;;2.50;;
1679;SDS011;838;51.794;12.258;2024-01-07T07:13:33;4.70;;;2.60;;
1679;SDS011;838;51.794;12.258;2024-01-07T07:15:59;5.80;;;2.90;;
1679;SDS011;838;51.794;12.258;2024-01-07T07:18:25;4.20;;;2.47;;
1679;SDS011;838;51.794;12.258;2024-01-07T07:20:50;4.93;;;2.97;;
1679;SDS011;838;51.794;12.258;2024-01-07T07:23:16;4.53;;;2.00;;
1679;SDS011;838;51.794;12.258;2024-01-07T07:25:42;4.03;;;2.53;;
1679;SDS011;838;51.794;12.258;2024-01-07T07:28:11;4.00;;;2.57;;
1679;SDS011;838;51.794;12.258;2024-01-07T07:30:36;6.27;;;2.73;;
1679;SDS011;838;51.794;12.258;2024-01-07T07:33:02;4.20;;;2.33;;
1679;SDS011;838;51.794;12.258;2024-01-07T07:35:28;3.67;;;2.67;;
1679;SDS011;838;51.794;12.258;2024-01-07T07:37:54;3.50;;;2.50;;
1679;SDS011;838;51.794;12.258;2024-01-07T07:40:20;4.90;;;2.63;;
1679;SDS011;838;51.794;12.258;2024-01-07T07:42:46;5.20;;;2.40;;
1679;SDS011;838;51.794;12.258;2024-01-07T07:45:11;4.83;;;2.77;;
1679;SDS011;838;51.794;12.258;2024-01-07T07:47:37;3.97;;;2.33;;
1679;SDS011;838;51.794;12.258;2024-01-07T07:50:06;3.47;;;2.17;;
1679;SDS011;838;51.794;12.258;2024-01-07T07:52:32;4.00;;;2.23;;
1679;SDS011;838;51.794;12.258;2024-01-07T07:54:58;3.50;;;2.10;;
1679;SDS011;838;51.794;12.258;2024-01-07T07:57:24;3.73;;;2.20;;
1679;SDS011;838;51.794;12.258;2024-01-07T07:59:50;4.00;;;2.20;;
1679;SDS011;838;51.794;12.258;2024-01-07T08:02:16;3.63;;;2.07;;
1679;SDS011;838;51.794;12.258;2024-01-07T08:04:43;5.17;;;2.43;;
1679;SDS011;838;51.794;12.258;2024-01-07T08:07:09;4.60;;;2.67;;
1679;SDS011;838;51.794;12.258;2024-01-07T08:09:35;2.90;;;1.83;;
1679;SDS011;838;51.794;12.258;2024-01-07T08:12:02;4.10;;;2.17;;
1679;SDS011;838;51.794;12.258;2024-01-07T08:14:28;3.73;;;2.00;;
1679;SDS011;838;51.794;12.258;2024-01-07T08:16:55;3.57;;;1.97;;
1679;SDS011;838;51.794;12.258;2024-01-07T08:19:20;3.30;;;1.83;;
1679;SDS011;838;51.794;12.258;2024-01-07T08:21:46;3.63;;;1.83;;
1679;SDS011;838;51.794;12.258;2024-01-07T08:24:12;3.67;;;1.90;;
1679;SDS011;838;51.794;12.258;2024-01-07T08:26:37;3.13;;;1.80;;
1679;SDS011;838;51.794;12.258;2024-01-07T08:29:03;3.50;;;2.40;;
1679;SDS011;838;51.794;12.258;2024-01-07T08:31:29;3.57;;;2.13;;
1679;SDS011;838;51.794;12.258;2024-01-07T08:33:56;5.07;;;2.07;;
1679;SDS011;838;51.794;12.258;2024-01-07T08:36:22;3.70;;;1.87;;
1679;SDS011;838;51.794;12.258;2024-01-07T08:38:48;3.73;;;2.20;;
1679;SDS011;838;51.794;12.258;2024-01-07T08:41:17;3.40;;;1.80;;
1679;SDS011;838;51.794;12.258;2024-01-07T08:43:43;3.40;;;2.00;;
1679;SDS011;838;51.794;12.258;2024-01-07T08:46:10;3.07;;;1.77;;
1679;SDS011;838;51.794;12.258;2024-01-07T08:48:36;3.10;;;1.97;;
1679;SDS011;838;51.794;12.258;2024-01-07T08:51:01;3.60;;;2.20;;
1679;SDS011;838;51.794;12.258;2024-01-07T08:53:28;3.27;;;1.87;;
1679;SDS011;838;51.794;12.258;2024-01-07T08:55:54;3.20;;;1.90;;
1679;SDS011;838;51.794;12.258;2024-01-07T08:58:20;3.10;;;1.83;;
1679;SDS011;838;51.794;12.258;2024-01-07T09:00:45;2.90;;;1.70;;
1679;SDS011;838;51.794;12.258;2024-01-07T09:03:11;2.97;;;2.00;;
1679;SDS011;838;51.794;12.258;2024-01-07T09:05:37;4.30;;;1.90;;
1679;SDS011;838;51.794;12.258;2024-01-07T09:08:02;2.63;;;1.60;;
1679;SDS011;838;51.794;12.258;2024-01-07T09:10:28;3.10;;;2.03;;
1679;SDS011;838;51.794;12.258;2024-01-07T09:12:54;3.50;;;1.87;;
1679;SDS011;838;51.794;12.258;2024-01-07T09:15:20;3.00;;;1.80;;
1679;SDS011;838;51.794;12.258;2024-01-07T09:17:46;3.53;;;1.80;;
1679;SDS011;838;51.794;12.258;2024-01-07T09:20:12;3.37;;;1.80;;
1679;SDS011;838;51.794;12.258;2024-01-07T09:22:38;3.20;;;1.90;;
1679;SDS011;838;51.794;12.258;2024-01-07T09:25:04;3.23;;;1.83;;
1679;SDS011;838;51.794;12.258;2024-01-07T09:27:31;3.90;;;1.70;;
1679;SDS011;838;51.794;12.258;2024-01-07T09:29:57;2.60;;;1.50;;
1679;SDS011;838;51.794;12.258;2024-01-07T09:32:23;3.60;;;1.67;;
1679;SDS011;838;51.794;12.258;2024-01-07T09:34:49;3.03;;;1.80;;
1679;SDS011;838;51.794;12.258;2024-01-07T09:37:15;3.10;;;1.93;;
1679;SDS011;838;51.794;12.258;2024-01-07T09:39:42;3.80;;;1.87;;
1679;SDS011;838;51.794;12.258;2024-01-07T09:42:11;3.77;;;2.00;;
1679;SDS011;838;51.794;12.258;2024-01-07T09:44:41;2.77;;;1.50;;
1679;SDS011;838;51.794;12.258;2024-01-07T09:47:10;4.30;;;1.80;;
1679;SDS011;838;51.794;12.258;2024-01-07T09:49:37;2.60;;;1.50;;
1679;SDS011;838;51.794;12.258;2024-01-07T09:52:04;3.00;;;1.70;;
1679;SDS011;838;51.794;12.258;2024-01-07T09:54:31;3.40;;;1.60;;
1679;SDS011;838;51.794;12.258;2024-01-07T09:57:01;3.10;;;1.73;;
1679;SDS011;838;51.794;12.258;2024-01-07T09:59:28;3.07;;;1.77;;
1679;SDS011;838;51.794;12.258;2024-01-07T10:01:54;3.37;;;1.97;;
1679;SDS011;838;51.794;12.258;2024-01-07T10:04:21;3.23;;;1.90;;
1679;SDS011;838;51.794;12.258;2024-01-07T10:06:47;4.30;;;1.80;;
1679;SDS011;838;51.794;12.258;2024-01-07T10:09:14;2.80;;;1.87;;
1679;SDS011;838;51.794;12.258;2024-01-07T10:11:41;3.53;;;2.00;;
1679;SDS011;838;51.794;12.258;2024-01-07T10:14:07;4.30;;;2.20;;
1679;SDS011;838;51.794;12.258;2024-01-07T10:16:33;3.63;;;1.87;;
1679;SDS011;838;51.794;12.258;2024-01-07T10:18:59;3.00;;;1.90;;
1679;SDS011;838;51.794;12.258;2024-01-07T10:21:25;2.70;;;1.70;;
1679;SDS011;838;51.794;12.258;2024-01-07T10:23:52;3.20;;;1.80;;
1679;SDS011;838;51.794;12.258;2024-01-07T10:26:34;3.40;;;1.87;;
1679;SDS011;838;51.794;12.258;2024-01-07T10:29:00;2.87;;;1.73;;
1679;SDS011;838;51.794;12.258;2024-01-07T10:31:26;3.10;;;1.80;;
1679;SDS011;838;51.794;12.258;2024-01-07T10:33:52;3.50;;;2.10;;
1679;SDS011;838;51.794;12.258;2024-01-07T10:36:18;2.90;;;1.97;;
1679;SDS011;838;51.794;12.258;2024-01-07T10:38:47;3.60;;;1.80;;
1679;SDS011;838;51.794;12.258;2024-01-07T10:41:14;3.70;;;2.17;;
1679;SDS011;838;51.794;12.258;2024-01-07T10:43:42;2.93;;;1.70;;
1679;SDS011;838;51.794;12.258;2024-01-07T10:46:12;3.27;;;1.83;;
1679;SDS011;838;51.794;12.258;2024-01-07T10:48:41;3.90;;;2.07;;
1679;SDS011;838;51.794;12.258;2024-01-07T10:51:29;3.20;;;1.90;;
1679;SDS011;838;51.794;12.258;2024-01-07T10:53:59;3.83;;;2.20;;
1679;SDS011;838;51.794;12.258;2024-01-07T10:56:25;3.57;;;2.27;;
1679;SDS011;838;51.794;12.258;2024-01-07T10:58:58;3.90;;;2.23;;
1679;SDS011;838;51.794;12.258;2024-01-07T11:01:25;3.63;;;1.90;;
1679;SDS011;838;51.794;12.258;2024-01-07T11:06:36;2.90;;;1.70;;
1679;SDS011;838;51.794;12.258;2024-01-07T11:09:19;2.90;;;1.80;;
1679;SDS011;838;51.794;12.258;2024-01-07T11:11:45;3.87;;;1.90;;
1679;SDS011;838;51.794;12.258;2024-01-07T11:17:02;4.40;;;2.13;;
1679;SDS011;838;51.794;12.258;2024-01-07T11:19:28;4.77;;;2.23;;
1679;SDS011;838;51.794;12.258;2024-01-07T11:24:53;2.83;;;1.60;;
1679;SDS011;838;51.794;12.258;2024-01-07T11:27:23;3.90;;;1.90;;
1679;SDS011;838;51.794;12.258;2024-01-07T11:29:53;3.10;;;1.73;;
1679;SDS011;838;51.794;12.258;2024-01-07T11:32:33;3.40;;;1.87;;
1679;SDS011;838;51.794;12.258;2024-01-07T11:34:59;3.60;;;1.93;;
1679;SDS011;838;51.794;12.258;2024-01-07T11:37:27;3.00;;;1.60;;
1679;SDS011;838;51.794;12.258;2024-01-07T11:39:56;3.10;;;1.73;;
1679;SDS011;838;51.794;12.258;2024-01-07T11:42:23;3.03;;;1.80;;
1679;SDS011;838;51.794;12.258;2024-01-07T11:44:55;2.93;;;1.50;;
1679;SDS011;838;51.794;12.258;2024-01-07T11:47:21;3.10;;;1.70;;
1679;SDS011;838;51.794;12.258;2024-01-07T11:49:47;3.07;;;1.70;;
1679;SDS011;838;51.794;12.258;2024-01-07T11:52:17;2.97;;;1.83;;
1679;SDS011;838;51.794;12.258;2024-01-07T11:54:43;4.07;;;2.10;;
1679;SDS011;838;51.794;12.258;2024-01-07T11:57:09;2.90;;;1.83;;
1679;SDS011;838;51.794;12.258;2024-01-07T11:59:36;2.93;;;1.83;;
1679;SDS011;838;51.794;12.258;2024-01-07T12:02:02;3.23;;;1.70;;
1679;SDS011;838;51.794;12.258;2024-01-07T12:04:31;2.80;;;1.77;;
1679;SDS011;838;51.794;12.258;2024-01-07T12:06:57;3.50;;;2.00;;
1679;SDS011;838;51.794;12.258;2024-01-07T12:09:24;2.90;;;1.70;;
1679;SDS011;838;51.794;12.258;2024-01-07T12:11:53;2.87;;;1.70;;
1679;SDS011;838;51.794;12.258;2024-01-07T12:14:19;3.40;;;2.07;;
1679;SDS011;838;51.794;12.258;2024-01-07T12:16:45;3.73;;;2.13;;
1679;SDS011;838;51.794;12.258;2024-01-07T12:19:11;3.67;;;1.83;;
1679;SDS011;838;51.794;12.258;2024-01-07T12:21:37;3.60;;;2.20;;
1679;SDS011;838;51.794;12.258;2024-01-07T12:24:03;2.90;;;1.80;;
1679;SDS011;838;51.794;12.258;2024-01-07T12:26:30;3.93;;;2.03;;
1679;SDS011;838;51.794;12.258;2024-01-07T12:28:58;3.40;;;2.03;;
1679;SDS011;838;51.794;12.258;2024-01-07T12:31:29;3.63;;;2.00;;
1679;SDS011;838;51.794;12.258;2024-01-07T12:33:59;3.70;;;2.23;;
1679;SDS011;838;51.794;12.258;2024-01-07T12:36:25;4.50;;;2.37;;
1679;SDS011;838;51.794;12.258;2024-01-07T12:38:51;4.00;;;2.03;;
1679;SDS011;838;51.794;12.258;2024-01-07T12:41:21;3.93;;;2.50;;
1679;SDS011;838;51.794;12.258;2024-01-07T12:43:48;4.10;;;2.33;;
1679;SDS011;838;51.794;12.258;2024-01-07T12:46:14;3.93;;;2.40;;
1679;SDS011;838;51.794;12.258;2024-01-07T12:48:39;5.27;;;2.43;;
1679;SDS011;838;51.794;12.258;2024-01-07T12:51:05;4.00;;;2.93;;
1679;SDS011;838;51.794;12.258;2024-01-07T12:53:31;4.30;;;2.73;;
1679;SDS011;838;51.794;12.258;2024-01-07T12:55:57;6.30;;;2.70;;
1679;SDS011;838;51.794;12.258;2024-01-07T12:58:23;3.70;;;2.50;;
1679;SDS011;838;51.794;12.258;2024-01-07T13:00:48;4.30;;;3.00;;
1679;SDS011;838;51.794;12.258;2024-01-07T13:03:14;4.20;;;2.53;;
1679;SDS011;838;51.794;12.258;2024-01-07T13:05:46;4.10;;;2.63;;
1679;SDS011;838;51.794;12.258;2024-01-07T13:08:15;4.67;;;2.60;;
1679;SDS011;838;51.794;12.258;2024-01-07T13:10:41;6.03;;;4.77;;
1679;SDS011;838;51.794;12.258;2024-01-07T13:13:07;5.87;;;3.80;;
1679;SDS011;838;51.794;12.258;2024-01-07T13:15:34;6.50;;;3.80;;
1679;SDS011;838;51.794;12.258;2024-01-07T13:18:00;6.03;;;4.10;;
1679;SDS011;838;51.794;12.258;2024-01-07T13:20:27;5.37;;;2.77;;
1679;SDS011;838;51.794;12.258;2024-01-07T13:22:53;6.90;;;2.60;;
1679;SDS011;838;51.794;12.258;2024-01-07T13:25:18;5.13;;;3.33;;
1679;SDS011;838;51.794;12.258;2024-01-07T13:27:44;5.37;;;3.27;;
1679;SDS011;838;51.794;12.258;2024-01-07T13:30:10;6.20;;;3.40;;
1679;SDS011;838;51.794;12.258;2024-01-07T13:32:36;6.23;;;3.07;;
1679;SDS011;838;51.794;12.258;2024-01-07T13:35:04;5.13;;;2.90;;
1679;SDS011;838;51.794;12.258;2024-01-07T13:37:30;6.77;;;3.23;;
1679;SDS011;838;51.794;12.258;2024-01-07T13:39:56;5.73;;;3.27;;
1679;SDS011;838;51.794;12.258;2024-01-07T13:42:22;6.77;;;3.57;;
1679;SDS011;838;51.794;12.258;2024-01-07T13:44:48;6.53;;;4.20;;
1679;SDS011;838;51.794;12.258;2024-01-07T13:47:14;8.40;;;4.70;;
1679;SDS011;838;51.794;12.258;2024-01-07T13:49:41;7.30;;;4.27;;
1679;SDS011;838;51.794;12.258;2024-01-07T13:52:07;7.47;;;4.20;;
1679;SDS011;838;51.794;12.258;2024-01-07T13:54:32;6.10;;;4.00;;
1679;SDS011;838;51.794;12.258;2024-01-07T13:56:58;5.97;;;3.30;;
1679;SDS011;838;51.794;12.258;2024-01-07T13:59:24;10.60;;;5.23;;
1679;SDS011;838;51.794;12.258;2024-01-07T14:01:51;11.27;;;6.13;;
1679;SDS011;838;51.794;12.258;2024-01-07T14:04:17;6.13;;;4.40;;
1679;SDS011;838;51.794;12.258;2024-01-07T14:06:43;7.57;;;4.30;;
1679;SDS011;838;51.794;12.258;2024-01-07T14:09:09;7.63;;;4.70;;
1679;SDS011;838;51.794;12.258;2024-01-07T14:11:35;7.70;;;5.00;;
1679;SDS011;838;51.794;12.258;2024-01-07T14:14:01;7.67;;;5.03;;
1679;SDS011;838;51.794;12.258;2024-01-07T14:16:27;6.60;;;4.60;;
1679;SDS011;838;51.794;12.258;2024-01-07T14:18:53;8.60;;;5.67;;
1679;SDS011;838;51.794;12.258;2024-01-07T14:21:19;6.30;;;4.60;;
1679;SDS011;838;51.794;12.258;2024-01-07T14:23:46;7.87;;;4.70;;
1679;SDS011;838;51.794;12.258;2024-01-07T14:26:12;8.57;;;5.10;;
1679;SDS011;838;51.794;12.258;2024-01-07T14:28:38;7.60;;;4.27;;
1679;SDS011;838;51.794;12.258;2024-01-07T14:31:03;6.50;;;3.87;;
1679;SDS011;838;51.794;12.258;2024-01-07T14:33:29;4.93;;;3.63;;
1679;SDS011;838;51.794;12.258;2024-01-07T14:35:55;7.30;;;4.83;;
1679;SDS011;838;51.794;12.258;2024-01-07T14:38:20;6.00;;;4.80;;
1679;SDS011;838;51.794;12.258;2024-01-07T14:40:47;13.27;;;7.80;;
1679;SDS011;838;51.794;12.258;2024-01-07T14:43:17;14.43;;;7.80;;
1679;SDS011;838;51.794;12.258;2024-01-07T14:45:43;8.80;;;5.40;;
1679;SDS011;838;51.794;12.258;2024-01-07T14:48:08;8.23;;;4.37;;
1679;SDS011;838;51.794;12.258;2024-01-07T14:50:35;7.77;;;5.03;;
1679;SDS011;838;51.794;12.258;2024-01-07T14:53:00;8.30;;;5.53;;
1679;SDS011;838;51.794;12.258;2024-01-07T14:55:26;8.30;;;4.90;;
1679;SDS011;838;51.794;12.258;2024-01-07T14:57:52;7.40;;;5.07;;
1679;SDS011;838;51.794;12.258;2024-01-07T15:00:18;6.93;;;4.43;;
1679;SDS011;838;51.794;12.258;2024-01-07T15:02:43;5.57;;;4.40;;
1679;SDS011;838;51.794;12.258;2024-01-07T15:05:10;7.90;;;4.60;;
1679;SDS011;838;51.794;12.258;2024-01-07T15:07:36;7.37;;;4.37;;
1679;SDS011;838;51.794;12.258;2024-01-07T15:10:02;8.53;;;4.40;;
1679;SDS011;838;51.794;12.258;2024-01-07T15:12:28;7.53;;;4.53;;
1679;SDS011;838;51.794;12.258;2024-01-07T15:15:03;7.87;;;5.57;;
1679;SDS011;838;51.794;12.258;2024-01-07T15:17:31;9.17;;;5.37;;